Home, Washington
Current Conditions -  °F | °C
As of 8:46 PM on Saturday 25 Oct 2014 (Local Time) from KTIW Reporting Station
Overcast Overcast  
Wind Chill: 52°   Ceiling: 7000
Heat Index: 52°   Visibility: 10mi
Dew Point: 47°   Wind: 22mph
Humidity: 83%   Direction: 200°SSW
Pressure: 29.57"   Gusts: 45mph
Location:  47.264°N, 122.772°W
Report Text: KTIW 260346Z AUTO 20019G39KT 10SM FEW018 BKN070 OVC110 11/08 A2957 RMK AO2 PK WND 19039/0339 RAE17 PRESRR P0001 T01110083
Loading
Personal Weather Stations






























Interactive Weather Map
Tropical Storm Tracking
New forecast layout! Learn more

10-Day Weather Forecast

Advertisements
Track Severe Weather on mobile